This is the latest recevied weather packets stored in our database for station/object N9OJR. If no packets are shown the sender has not sent any weather packets the latest 10 day(s).
| Time | Temp. | Humidity | Pressure | Rain* | Wind** | Luminosity | Snow |
|---|---|---|---|---|---|---|---|
| 1778079244 | 10.56° C | 81% | 1007.1 hPa | 0 mm | - | 310 W/m² | - |
| 1778078942 | 10° C | 83% | 1006.9 hPa | 0 mm | - | 321 W/m² | - |
| 1778078638 | 9.44° C | 86% | 1007.2 hPa | 0 mm | - | 272 W/m² | - |
| 1778078336 | 9.44° C | 90% | 1007.1 hPa | 0 mm | - | 280 W/m² | - |
| 1778078033 | 8.89° C | 97% | 1006.9 hPa | 0 mm | - | 300 W/m² | - |
| 1778077732 | 8.33° C | 99% | 1007 hPa | 0 mm | - | 269 W/m² | - |
| 1778077429 | 7.78° C | 99% | 1006.9 hPa | 0 mm | - | 275 W/m² | - |
| 1778077127 | 7.78° C | 99% | 1006.7 hPa | 0 mm | - | 292 W/m² | - |
| 1778076825 | 7.22° C | 99% | 1006.9 hPa | 0 mm | - | 265 W/m² | - |
| 1778076523 | 7.22° C | 99% | 1006.9 hPa | 0 mm | - | 206 W/m² | - |
| 1778076219 | 7.22° C | 99% | 1006.7 hPa | 0 mm | - | 173 W/m² | - |
| 1778075916 | 7.22° C | 99% | 1006.9 hPa | 0 mm | - | 152 W/m² | - |
| 1778075613 | 7.22° C | 99% | 1007 hPa | 0 mm | - | 143 W/m² | - |
| 1778075309 | 7.22° C | 99% | 1006.8 hPa | 0 mm | - | 142 W/m² | - |
| 1778075006 | 7.22° C | 99% | 1006.7 hPa | 0 mm | - | 135 W/m² | - |
| 1778074703 | 7.22° C | 99% | 1006.9 hPa | 0 mm | - | 115 W/m² | - |
| 1778074400 | 7.78° C | 99% | 1007 hPa | 0 mm | - | 105 W/m² | - |
| 1778074096 | 7.22° C | 99% | 1006.9 hPa | 0 mm | - | 101 W/m² | - |
| 1778073794 | 7.22° C | 99% | 1006.6 hPa | 0 mm | - | 163 W/m² | - |
| 1778073492 | 7.78° C | 99% | 1006.5 hPa | 0 mm | - | 167 W/m² | - |
| 1778073187 | 7.22° C | 99% | 1006.5 hPa | 0 mm | - | 142 W/m² | - |
| 1778072885 | 7.22° C | 99% | 1006.4 hPa | 0 mm | - | 140 W/m² | - |
| 1778072581 | 7.22° C | 99% | 1006.5 hPa | 0 mm | - | 86 W/m² | - |
| 1778072279 | 7.22° C | 99% | 1005.8 hPa | 0 mm | - | 113 W/m² | - |
| 1778071977 | 7.22° C | 99% | 1006 hPa | 0 mm | - | 81 W/m² | - |
* Rain latest hour (hover to see other rain measurements)
** Current wind speed in m/s (hover to see current wind gust speed)